createdAt,value
2023-04-04T00:07:10.088Z,-3.39
2023-04-04T00:17:14.345Z,-3.46
2023-04-04T00:27:20.150Z,-3.55
2023-04-04T00:37:24.312Z,-3.60
2023-04-04T00:47:32.924Z,-3.64
2023-04-04T00:57:39.096Z,-3.73
2023-04-04T01:07:44.998Z,-3.84
2023-04-04T01:17:52.013Z,-3.94
2023-04-04T01:27:57.680Z,-4.02
2023-04-04T01:38:15.931Z,-4.03
2023-04-04T01:48:22.481Z,-4.09
2023-04-04T01:58:28.169Z,-4.17
2023-04-04T02:08:34.040Z,-4.24
2023-04-04T02:18:40.505Z,-4.27
2023-04-04T02:28:46.415Z,-4.28
2023-04-04T02:38:52.212Z,-4.33
2023-04-04T02:48:57.824Z,-4.39
2023-04-04T02:59:03.779Z,-4.43
2023-04-04T03:09:09.499Z,-4.43
2023-04-04T03:19:15.153Z,-4.47
2023-04-04T03:29:21.110Z,-4.52
2023-04-04T03:39:30.866Z,-4.65
2023-04-04T03:49:36.758Z,-4.74
2023-04-04T03:59:42.600Z,-4.80
2023-04-04T04:09:48.391Z,-4.81
2023-04-04T04:19:54.360Z,-4.81
2023-04-04T04:30:00.479Z,-4.71
2023-04-04T04:40:08.732Z,-4.52
2023-04-04T04:50:16.537Z,-4.23
2023-04-04T05:00:23.567Z,-3.86
2023-04-04T05:10:30.112Z,-3.47
2023-04-04T05:20:36.302Z,-2.64
2023-04-04T05:30:42.408Z,1.01
2023-04-04T05:40:48.450Z,6.17
2023-04-04T05:50:54.233Z,12.62
2023-04-04T06:00:59.984Z,15.65
2023-04-04T06:11:05.752Z,17.15
2023-04-04T06:21:11.430Z,13.54
2023-04-04T06:31:17.278Z,10.44
2023-04-04T06:41:23.167Z,8.10
2023-04-04T06:51:29.315Z,5.82
2023-04-04T07:01:38.308Z,6.71
2023-04-04T07:11:47.097Z,4.82
2023-04-04T07:21:53.650Z,5.20
2023-04-04T07:31:59.440Z,5.43
2023-04-04T07:42:07.840Z,2.67
2023-04-04T07:52:13.588Z,1.92
2023-04-04T08:02:19.718Z,1.15
2023-04-04T08:12:30.246Z,0.97
2023-04-04T08:22:37.248Z,1.42
2023-04-04T08:32:44.583Z,1.36
2023-04-04T08:42:53.691Z,1.38
2023-04-04T08:53:03.116Z,1.59
2023-04-04T09:03:16.402Z,1.60
2023-04-04T09:13:22.982Z,1.48
2023-04-04T09:23:28.986Z,1.13
2023-04-04T09:33:35.854Z,1.32
2023-04-04T09:43:41.881Z,1.48
2023-04-04T09:53:50.212Z,1.43
2023-04-04T10:03:59.377Z,1.49
2023-04-04T10:14:08.483Z,1.70
2023-04-04T10:24:14.301Z,1.84
2023-04-04T10:34:26.861Z,1.89
2023-04-04T10:44:35.284Z,2.17
2023-04-04T10:54:42.392Z,2.14
2023-04-04T11:04:48.135Z,2.26
2023-04-04T11:15:11.846Z,2.38
2023-04-04T11:25:39.972Z,2.80
2023-04-04T11:35:52.761Z,2.87
2023-04-04T11:46:11.376Z,2.69
2023-04-04T11:56:20.883Z,2.44
2023-04-04T12:06:27.286Z,2.35
2023-04-04T12:16:33.313Z,2.41
2023-04-04T12:26:41.335Z,2.41
2023-04-04T12:36:49.911Z,2.71
2023-04-04T12:46:57.684Z,2.60
2023-04-04T12:57:05.792Z,2.18
2023-04-04T13:07:25.876Z,1.89
2023-04-04T13:17:45.091Z,2.11
2023-04-04T13:27:50.821Z,2.23
2023-04-04T13:37:57.253Z,2.28
2023-04-04T13:48:04.220Z,2.27
2023-04-04T13:58:10.175Z,2.32
2023-04-04T14:08:16.095Z,2.13
2023-04-04T14:18:22.303Z,1.84
2023-04-04T14:28:28.303Z,1.94
2023-04-04T14:38:34.502Z,1.99
2023-04-04T14:48:40.447Z,2.06
2023-04-04T14:58:46.490Z,1.85
2023-04-04T15:08:52.221Z,1.69
2023-04-04T15:18:58.116Z,1.71
2023-04-04T15:29:04.892Z,1.83
2023-04-04T15:39:11.519Z,1.92
2023-04-04T15:49:17.501Z,1.83
2023-04-04T15:59:23.539Z,1.61
2023-04-04T16:09:29.524Z,1.49
2023-04-04T16:19:36.964Z,1.34
2023-04-04T16:29:46.384Z,1.31
2023-04-04T16:39:52.569Z,1.13
2023-04-04T16:49:58.772Z,0.90
2023-04-04T17:00:06.600Z,0.78
2023-04-04T17:10:14.541Z,0.62
2023-04-04T17:20:20.897Z,0.47
2023-04-04T17:30:26.720Z,0.22
2023-04-04T17:40:46.978Z,-0.05
2023-04-04T17:50:53.775Z,-0.39
2023-04-04T18:00:59.707Z,-0.61
2023-04-04T18:11:06.350Z,-1.11
2023-04-04T18:21:12.176Z,-1.66
2023-04-04T18:31:18.295Z,-2.09
2023-04-04T18:41:24.278Z,-2.36
2023-04-04T18:51:29.970Z,-2.60
2023-04-04T19:01:36.217Z,-2.72
2023-04-04T19:11:43.542Z,-2.91
2023-04-04T19:21:49.270Z,-3.00
2023-04-04T19:31:56.867Z,-2.88
2023-04-04T19:42:06.662Z,-2.82
2023-04-04T19:52:13.346Z,-2.77
2023-04-04T20:03:00.594Z,-2.76
2023-04-04T20:13:07.972Z,-2.85
2023-04-04T20:23:15.208Z,-2.89
2023-04-04T20:33:36.896Z,-2.78
2023-04-04T20:43:45.699Z,-2.52
2023-04-04T20:53:51.880Z,-2.30
2023-04-04T21:03:59.662Z,-2.13
2023-04-04T21:14:06.546Z,-2.03
2023-04-04T21:24:13.148Z,-1.89
2023-04-04T21:34:21.198Z,-1.67
2023-04-04T21:44:27.612Z,-1.50
2023-04-04T21:54:33.551Z,-1.36
2023-04-04T22:04:39.271Z,-1.31
2023-04-04T22:14:45.811Z,-1.25
2023-04-04T22:24:51.149Z,-1.33
2023-04-04T22:34:57.651Z,-1.43
2023-04-04T22:45:03.482Z,-1.67
2023-04-04T22:55:10.361Z,-1.90
2023-04-04T23:05:17.811Z,-2.10
2023-04-04T23:15:23.562Z,-2.43
2023-04-04T23:25:28.065Z,-2.86
2023-04-04T23:35:33.928Z,-3.29
2023-04-04T23:45:40.879Z,-3.65
2023-04-04T23:55:46.562Z,-3.89
